createdAt,value
2017-08-29T00:00:13.586Z,46.67
2017-08-29T00:02:42.411Z,32.97
2017-08-29T00:05:10.811Z,35.73
2017-08-29T00:07:39.238Z,33.30
2017-08-29T00:10:08.002Z,37.63
2017-08-29T00:12:36.883Z,46.50
2017-08-29T00:15:05.311Z,40.20
2017-08-29T00:17:34.063Z,27.93
2017-08-29T00:20:02.611Z,34.70
2017-08-29T00:22:31.327Z,44.40
2017-08-29T00:24:59.982Z,31.60
2017-08-29T00:27:28.506Z,33.50
2017-08-29T00:29:57.193Z,46.57
2017-08-29T00:32:25.778Z,26.60
2017-08-29T00:34:54.371Z,36.90
2017-08-29T00:37:22.979Z,33.00
2017-08-29T00:39:51.843Z,35.40
2017-08-29T00:42:20.589Z,37.50
2017-08-29T00:44:49.038Z,34.97
2017-08-29T00:47:17.798Z,35.07
2017-08-29T00:49:46.410Z,34.23
2017-08-29T00:52:15.136Z,36.30
2017-08-29T00:54:43.369Z,38.73
2017-08-29T00:57:12.138Z,48.53
2017-08-29T00:59:40.885Z,27.37
2017-08-29T01:02:09.371Z,39.90
2017-08-29T01:04:37.894Z,28.17
2017-08-29T01:07:06.478Z,31.30
2017-08-29T01:09:34.811Z,33.23
2017-08-29T01:12:03.529Z,46.43
2017-08-29T01:14:32.154Z,29.93
2017-08-29T01:17:00.908Z,33.17
2017-08-29T01:19:29.439Z,39.63
2017-08-29T01:21:58.090Z,35.60
2017-08-29T01:24:26.906Z,37.53
2017-08-29T01:26:55.498Z,49.23
2017-08-29T01:29:24.046Z,33.53
2017-08-29T01:31:52.865Z,28.80
2017-08-29T01:34:21.586Z,43.57
2017-08-29T01:36:49.986Z,40.10
2017-08-29T01:39:18.798Z,33.33
2017-08-29T01:41:47.510Z,46.10
2017-08-29T01:44:17.717Z,38.73
2017-08-29T01:46:46.358Z,38.27
2017-08-29T01:49:15.351Z,35.33
2017-08-29T01:51:44.633Z,35.37
2017-08-29T01:54:14.606Z,39.00
2017-08-29T01:56:43.409Z,28.50
2017-08-29T01:59:12.529Z,32.43
2017-08-29T02:01:43.175Z,36.40
2017-08-29T02:04:13.102Z,40.30
2017-08-29T02:06:43.622Z,38.27
2017-08-29T02:09:13.291Z,36.33
2017-08-29T02:11:43.980Z,29.00
2017-08-29T02:14:13.894Z,41.10
2017-08-29T02:16:43.441Z,29.03
2017-08-29T02:19:13.198Z,30.00
2017-08-29T02:21:42.754Z,30.77
2017-08-29T02:24:12.166Z,31.60
2017-08-29T02:26:42.206Z,30.97
2017-08-29T02:29:11.622Z,31.73
2017-08-29T02:31:41.006Z,36.23
2017-08-29T02:34:11.716Z,29.50
2017-08-29T02:36:39.810Z,28.67
2017-08-29T02:39:08.566Z,39.43
2017-08-29T02:41:37.286Z,48.63
2017-08-29T02:44:05.994Z,36.47
2017-08-29T02:46:35.469Z,34.37
2017-08-29T02:49:04.366Z,28.90
2017-08-29T02:51:34.660Z,38.27
2017-08-29T02:54:03.070Z,60.27
2017-08-29T02:56:32.886Z,63.03
2017-08-29T02:59:02.694Z,60.53
2017-08-29T03:01:31.522Z,39.87
2017-08-29T03:04:00.910Z,49.23
2017-08-29T03:06:30.754Z,43.13
2017-08-29T03:08:59.908Z,52.93
2017-08-29T03:11:28.691Z,46.10
2017-08-29T03:13:59.894Z,40.87
2017-08-29T03:16:28.839Z,40.93
2017-08-29T03:18:57.825Z,28.60
2017-08-29T03:21:28.038Z,29.63
2017-08-29T03:23:58.599Z,27.03
2017-08-29T03:26:28.358Z,30.63
2017-08-29T03:28:57.130Z,51.93
2017-08-29T03:31:26.841Z,49.13
2017-08-29T03:33:55.329Z,57.60
2017-08-29T03:36:25.477Z,41.17
2017-08-29T03:38:55.993Z,50.77
2017-08-29T03:41:24.723Z,40.07
2017-08-29T03:43:53.150Z,46.20
2017-08-29T03:46:22.257Z,36.23
2017-08-29T03:48:53.418Z,39.60
2017-08-29T03:51:22.262Z,46.50
2017-08-29T03:53:50.457Z,49.67
2017-08-29T03:56:19.682Z,35.23
2017-08-29T03:58:50.130Z,66.43
2017-08-29T04:01:19.310Z,36.13
2017-08-29T04:03:48.446Z,37.23
2017-08-29T04:06:16.871Z,40.93
2017-08-29T04:08:46.656Z,40.07
2017-08-29T04:11:15.790Z,41.47
2017-08-29T04:13:44.655Z,34.63
2017-08-29T04:16:14.110Z,37.87
2017-08-29T04:18:43.792Z,53.40
2017-08-29T04:21:13.098Z,50.03
2017-08-29T04:23:42.120Z,37.77
2017-08-29T04:26:12.114Z,41.00
2017-08-29T04:28:40.454Z,49.70
2017-08-29T04:31:09.050Z,55.27
2017-08-29T04:33:37.462Z,44.93
2017-08-29T04:36:07.094Z,44.00
2017-08-29T04:38:37.314Z,55.13
2017-08-29T04:41:06.878Z,38.60
2017-08-29T04:43:35.830Z,58.53
2017-08-29T04:46:03.863Z,59.60
2017-08-29T04:48:32.550Z,54.60
2017-08-29T04:51:02.730Z,30.30
2017-08-29T04:53:31.674Z,30.30
2017-08-29T04:56:00.922Z,33.30
2017-08-29T04:58:30.386Z,43.53
2017-08-29T05:00:58.752Z,30.05
2017-08-29T05:03:27.615Z,44.97
2017-08-29T05:05:57.391Z,45.00
2017-08-29T05:08:26.685Z,43.92
2017-08-29T05:10:55.450Z,33.65
2017-08-29T05:13:24.714Z,30.05
2017-08-29T05:15:53.103Z,42.50
2017-08-29T05:18:21.902Z,36.33
2017-08-29T05:20:49.970Z,37.67
2017-08-29T05:23:20.392Z,38.60
2017-08-29T05:25:51.434Z,48.57
2017-08-29T05:28:19.869Z,44.33
2017-08-29T05:30:49.082Z,35.45
2017-08-29T05:33:20.107Z,31.23
2017-08-29T05:35:50.622Z,32.50
2017-08-29T05:38:19.262Z,36.22
2017-08-29T05:40:47.919Z,43.60
2017-08-29T05:43:15.958Z,43.08
2017-08-29T05:45:44.146Z,31.33
2017-08-29T05:48:12.554Z,35.97
2017-08-29T05:50:41.068Z,29.77
2017-08-29T05:53:10.491Z,33.20
2017-08-29T05:55:39.192Z,28.92
2017-08-29T05:58:08.018Z,34.17
2017-08-29T06:00:36.162Z,44.10
2017-08-29T06:03:04.191Z,30.30
2017-08-29T06:05:32.748Z,41.80
2017-08-29T06:08:01.546Z,28.70
2017-08-29T06:10:29.605Z,32.95
2017-08-29T06:12:57.621Z,30.83
2017-08-29T06:15:26.133Z,34.58
2017-08-29T06:17:54.578Z,40.90
2017-08-29T06:20:23.190Z,44.33
2017-08-29T06:22:51.778Z,39.03
2017-08-29T06:25:19.822Z,41.20
2017-08-29T06:27:47.845Z,35.90
2017-08-29T06:30:16.582Z,34.10
2017-08-29T06:32:44.634Z,36.22
2017-08-29T06:35:13.205Z,33.45
2017-08-29T06:37:42.023Z,30.83
2017-08-29T06:40:11.608Z,32.05
2017-08-29T06:42:39.642Z,33.38
2017-08-29T06:45:08.228Z,40.83
2017-08-29T06:47:37.963Z,23.42
2017-08-29T06:50:06.487Z,33.92
2017-08-29T06:52:35.108Z,36.03
2017-08-29T06:55:03.139Z,34.93
2017-08-29T06:57:31.611Z,33.90
2017-08-29T07:00:00.498Z,22.57
2017-08-29T07:02:29.337Z,38.22
2017-08-29T07:04:57.463Z,36.00
2017-08-29T07:07:26.403Z,26.10
2017-08-29T07:09:54.436Z,31.87
2017-08-29T07:12:22.906Z,29.48
2017-08-29T07:14:51.624Z,29.48
2017-08-29T07:17:20.114Z,36.53
2017-08-29T07:19:48.654Z,21.48
2017-08-29T07:22:18.244Z,25.75
2017-08-29T07:24:46.855Z,23.52
2017-08-29T07:27:14.966Z,25.05
2017-08-29T07:29:43.551Z,22.90
2017-08-29T07:45:08.087Z,25.90
2017-08-29T07:47:36.774Z,31.62
2017-08-29T07:50:05.050Z,35.63
2017-08-29T07:52:33.166Z,24.75
2017-08-29T07:55:01.655Z,36.70
2017-08-29T07:57:30.122Z,26.15
2017-08-29T07:59:58.981Z,40.97
2017-08-29T08:02:27.732Z,32.90
2017-08-29T08:04:56.162Z,27.25
2017-08-29T08:07:24.847Z,34.43
2017-08-29T08:09:53.558Z,30.52
2017-08-29T08:12:21.750Z,36.23
2017-08-29T08:14:50.747Z,24.00
2017-08-29T08:17:19.314Z,42.80
2017-08-29T08:19:47.440Z,25.23
2017-08-29T08:22:16.388Z,31.17
2017-08-29T08:24:45.035Z,42.53
2017-08-29T08:27:13.713Z,31.00
2017-08-29T08:29:42.377Z,27.97
2017-08-29T08:32:10.922Z,20.30
2017-08-29T08:34:39.571Z,33.00
2017-08-29T08:37:08.323Z,28.97
2017-08-29T08:39:36.374Z,29.40
2017-08-29T08:42:04.858Z,35.60
2017-08-29T08:44:33.637Z,29.83
2017-08-29T08:47:02.298Z,26.87
2017-08-29T08:49:30.817Z,39.73
2017-08-29T08:51:59.681Z,20.10
2017-08-29T08:54:29.134Z,22.80
2017-08-29T08:56:57.269Z,24.67
2017-08-29T08:59:26.055Z,29.97
2017-08-29T09:01:54.082Z,29.03
2017-08-29T09:04:22.127Z,21.23
2017-08-29T09:06:50.326Z,29.23
2017-08-29T09:09:18.351Z,28.30
2017-08-29T09:11:46.373Z,26.43
2017-08-29T09:14:14.490Z,22.93
2017-08-29T09:16:43.158Z,28.93
2017-08-29T09:19:11.682Z,24.23
2017-08-29T09:21:40.374Z,24.73
2017-08-29T09:24:09.095Z,31.43
2017-08-29T09:26:37.671Z,24.50
2017-08-29T09:29:05.827Z,27.63
2017-08-29T09:31:34.565Z,26.90
2017-08-29T09:34:02.614Z,20.30
2017-08-29T09:36:31.435Z,20.70
2017-08-29T09:38:59.582Z,19.03
2017-08-29T09:41:28.228Z,34.60
2017-08-29T09:43:56.986Z,21.73
2017-08-29T09:46:25.446Z,26.93
2017-08-29T09:48:54.058Z,23.23
2017-08-29T09:51:22.847Z,17.87
2017-08-29T09:53:51.539Z,32.13
2017-08-29T09:56:20.311Z,32.40
2017-08-29T09:58:48.969Z,23.43
2017-08-29T10:01:17.494Z,20.70
2017-08-29T10:03:45.534Z,32.63
2017-08-29T10:06:14.254Z,24.70
2017-08-29T10:08:42.937Z,25.97
2017-08-29T10:11:11.691Z,18.80
2017-08-29T10:13:39.790Z,28.03
2017-08-29T10:16:08.488Z,28.83
2017-08-29T10:18:36.500Z,20.47
2017-08-29T10:21:05.227Z,21.70
2017-08-29T10:23:33.998Z,27.63
2017-08-29T10:26:02.406Z,22.00
2017-08-29T10:28:31.031Z,27.00
2017-08-29T10:30:59.691Z,27.53
2017-08-29T10:33:28.155Z,36.90
2017-08-29T10:35:57.782Z,32.03
2017-08-29T10:38:26.560Z,29.67
2017-08-29T10:40:54.599Z,30.63
2017-08-29T10:43:23.254Z,27.33
2017-08-29T10:45:51.685Z,23.53
2017-08-29T10:48:19.722Z,24.90
2017-08-29T10:50:48.430Z,19.23
2017-08-29T10:53:16.778Z,31.30
2017-08-29T10:55:45.398Z,35.47
2017-08-29T10:58:14.215Z,20.50
2017-08-29T11:00:42.976Z,30.23
2017-08-29T11:03:11.103Z,35.17
2017-08-29T11:05:39.978Z,23.57
2017-08-29T11:08:08.441Z,20.63
2017-08-29T11:10:37.050Z,18.53
2017-08-29T11:13:05.902Z,22.00
2017-08-29T11:15:33.934Z,37.80
2017-08-29T11:18:02.498Z,29.07
2017-08-29T11:20:31.351Z,28.97
2017-08-29T11:22:59.530Z,31.60
2017-08-29T11:25:28.074Z,32.87
2017-08-29T11:27:56.898Z,35.50
2017-08-29T11:30:25.504Z,32.40
2017-08-29T11:32:53.722Z,26.00
2017-08-29T11:35:22.651Z,41.37
2017-08-29T11:37:50.842Z,42.17
2017-08-29T11:40:19.561Z,25.37
2017-08-29T11:42:48.451Z,39.63
2017-08-29T11:45:17.198Z,32.50
2017-08-29T11:47:45.423Z,31.53
2017-08-29T11:50:14.308Z,16.90
2017-08-29T11:52:43.096Z,37.13
2017-08-29T11:55:11.942Z,25.23
2017-08-29T11:57:40.814Z,32.87
2017-08-29T12:00:09.435Z,38.20
2017-08-29T12:02:38.054Z,32.57
2017-08-29T12:05:06.863Z,27.63
2017-08-29T12:07:35.592Z,30.17
2017-08-29T12:10:03.784Z,31.77
2017-08-29T12:12:32.489Z,27.53
2017-08-29T12:15:00.498Z,32.20
2017-08-29T12:17:29.075Z,34.57
2017-08-29T12:19:57.202Z,30.20
2017-08-29T12:22:25.630Z,24.93
2017-08-29T12:24:53.647Z,29.00
2017-08-29T12:27:22.203Z,37.73
2017-08-29T12:29:50.904Z,33.80
2017-08-29T12:32:19.256Z,30.27
2017-08-29T12:34:47.810Z,31.67
2017-08-29T12:37:15.821Z,32.93
2017-08-29T12:39:45.246Z,29.93
2017-08-29T12:42:13.734Z,29.27
2017-08-29T12:44:42.354Z,25.53
2017-08-29T12:47:11.138Z,21.00
2017-08-29T12:49:40.135Z,29.40
2017-08-29T12:52:08.889Z,28.27
2017-08-29T12:54:37.356Z,30.80
2017-08-29T12:57:06.103Z,18.50
2017-08-29T12:59:34.786Z,25.67
2017-08-29T13:02:02.890Z,29.40
2017-08-29T13:04:31.776Z,30.80
2017-08-29T13:07:00.499Z,33.30
2017-08-29T13:09:28.956Z,24.60
2017-08-29T13:11:57.602Z,31.17
2017-08-29T13:14:26.286Z,28.57
2017-08-29T13:16:55.078Z,32.03
2017-08-29T13:19:23.194Z,32.60
2017-08-29T13:21:51.838Z,33.80
2017-08-29T13:24:20.030Z,46.07
2017-08-29T13:26:48.175Z,29.53
2017-08-29T13:29:16.650Z,23.10
2017-08-29T13:31:45.394Z,28.80
2017-08-29T13:34:14.181Z,30.07
2017-08-29T13:36:42.898Z,33.27
2017-08-29T13:39:11.255Z,28.90
2017-08-29T13:41:39.455Z,23.87
2017-08-29T13:44:08.146Z,29.63
2017-08-29T13:46:36.151Z,31.30
2017-08-29T13:49:04.969Z,21.40
2017-08-29T13:51:33.413Z,26.03
2017-08-29T13:54:01.494Z,24.17
2017-08-29T13:56:30.379Z,26.57
2017-08-29T13:58:58.860Z,24.93
2017-08-29T14:01:26.878Z,23.93
2017-08-29T14:03:55.340Z,25.20
2017-08-29T14:06:23.919Z,20.40
2017-08-29T14:08:52.483Z,26.60
2017-08-29T14:11:21.043Z,23.80
2017-08-29T14:13:49.059Z,24.63
2017-08-29T14:16:17.462Z,25.80
2017-08-29T14:18:45.566Z,25.73
2017-08-29T14:21:14.029Z,30.53
2017-08-29T14:23:42.675Z,29.17
2017-08-29T14:26:11.594Z,28.10
2017-08-29T14:28:39.666Z,29.53
2017-08-29T14:31:08.145Z,30.23
2017-08-29T14:33:36.258Z,23.60
2017-08-29T14:36:04.907Z,21.37
2017-08-29T14:38:32.918Z,25.53
2017-08-29T14:41:01.463Z,21.90
2017-08-29T14:43:30.116Z,24.60
2017-08-29T14:45:58.639Z,22.23
2017-08-29T14:48:38.954Z,27.80
2017-08-29T14:51:07.582Z,27.37
2017-08-29T14:53:35.970Z,20.80
2017-08-29T14:56:04.718Z,19.70
2017-08-29T14:58:33.397Z,24.17
2017-08-29T15:01:02.084Z,26.30
2017-08-29T15:03:30.818Z,23.80
2017-08-29T15:05:59.294Z,23.03
2017-08-29T15:08:28.018Z,26.33
2017-08-29T15:10:56.138Z,26.27
2017-08-29T15:13:24.826Z,20.00
2017-08-29T15:15:52.839Z,23.17
2017-08-29T15:18:21.578Z,27.13
2017-08-29T15:20:50.221Z,27.23
2017-08-29T15:23:18.223Z,32.97
2017-08-29T15:25:47.064Z,30.30
2017-08-29T15:28:15.671Z,18.53
2017-08-29T15:30:43.735Z,23.70
2017-08-29T15:33:12.398Z,19.73
2017-08-29T15:35:40.441Z,27.23
2017-08-29T15:38:08.450Z,18.57
2017-08-29T15:40:37.055Z,22.50
2017-08-29T15:43:05.114Z,19.90
2017-08-29T15:45:33.531Z,17.80
2017-08-29T15:48:01.670Z,23.47
2017-08-29T15:50:30.270Z,18.57
2017-08-29T15:52:58.826Z,24.20
2017-08-29T15:55:27.276Z,27.73
2017-08-29T15:57:55.823Z,24.33
2017-08-29T16:00:24.375Z,26.23
2017-08-29T16:02:53.034Z,17.63
2017-08-29T16:05:21.581Z,25.40
2017-08-29T16:07:49.974Z,23.90
2017-08-29T16:10:18.822Z,19.60
2017-08-29T16:12:46.862Z,24.23
2017-08-29T16:15:15.375Z,26.97
2017-08-29T16:17:44.162Z,29.10
2017-08-29T16:20:12.202Z,22.87
2017-08-29T16:22:40.795Z,22.27
2017-08-29T16:25:09.502Z,21.57
2017-08-29T16:27:38.226Z,23.10
2017-08-29T16:30:06.628Z,22.30
2017-08-29T16:32:35.231Z,19.23
2017-08-29T16:35:03.278Z,24.53
2017-08-29T16:37:31.297Z,22.83
2017-08-29T16:39:59.418Z,22.37
2017-08-29T16:42:27.488Z,16.30
2017-08-29T16:44:55.490Z,23.50
2017-08-29T16:47:24.383Z,19.50
2017-08-29T16:49:53.008Z,22.63
2017-08-29T16:52:21.490Z,25.47
2017-08-29T16:54:50.242Z,23.43
2017-08-29T16:57:19.438Z,27.70
2017-08-29T16:59:48.055Z,22.63
2017-08-29T17:02:16.915Z,20.57
2017-08-29T17:04:45.696Z,27.80
2017-08-29T17:07:14.225Z,23.23
2017-08-29T17:09:42.878Z,20.03
2017-08-29T17:12:11.590Z,20.63
2017-08-29T17:14:40.322Z,25.63
2017-08-29T17:17:08.422Z,20.47
2017-08-29T17:19:36.446Z,18.30
2017-08-29T17:22:04.878Z,20.70
2017-08-29T17:24:33.089Z,26.13
2017-08-29T17:27:01.466Z,16.20
2017-08-29T17:29:30.025Z,20.90
2017-08-29T17:31:58.666Z,26.13
2017-08-29T17:34:27.070Z,19.40
2017-08-29T17:36:55.682Z,19.33
2017-08-29T17:39:24.489Z,17.67
2017-08-29T17:41:52.593Z,20.17
2017-08-29T17:44:20.914Z,24.53
2017-08-29T17:46:49.423Z,17.13
2017-08-29T17:49:17.981Z,21.60
2017-08-29T17:51:45.998Z,21.63
2017-08-29T17:54:14.642Z,26.07
2017-08-29T17:56:43.222Z,19.07
2017-08-29T17:59:11.974Z,21.47
2017-08-29T18:01:40.502Z,19.40
2017-08-29T18:04:08.980Z,29.97
2017-08-29T18:06:36.993Z,23.17
2017-08-29T18:09:05.875Z,27.50
2017-08-29T18:11:33.878Z,23.90
2017-08-29T18:14:02.306Z,20.40
2017-08-29T18:16:30.416Z,22.30
2017-08-29T18:18:58.433Z,18.13
2017-08-29T18:21:27.126Z,19.70
2017-08-29T18:23:55.225Z,18.60
2017-08-29T18:26:23.788Z,22.10
2017-08-29T18:28:52.434Z,25.80
2017-08-29T18:31:21.063Z,30.83
2017-08-29T18:33:49.646Z,23.87
2017-08-29T18:36:18.359Z,29.03
2017-08-29T18:38:47.058Z,23.03
2017-08-29T18:41:16.341Z,20.53
2017-08-29T18:43:44.343Z,17.27
2017-08-29T18:46:12.901Z,19.17
2017-08-29T18:48:41.526Z,26.03
2017-08-29T18:51:09.929Z,25.10
2017-08-29T18:53:38.458Z,19.60
2017-08-29T18:56:07.111Z,19.80
2017-08-29T18:58:35.684Z,17.90
2017-08-29T19:01:04.353Z,24.50
2017-08-29T19:03:32.872Z,26.80
2017-08-29T19:06:01.520Z,27.53
2017-08-29T19:08:29.993Z,20.30
2017-08-29T19:10:58.007Z,29.03
2017-08-29T19:13:26.522Z,22.03
2017-08-29T19:15:55.218Z,21.07
2017-08-29T19:18:23.763Z,21.20
2017-08-29T19:20:52.338Z,21.43
2017-08-29T19:23:20.994Z,38.63
2017-08-29T19:25:49.415Z,21.70
2017-08-29T19:28:18.070Z,20.77
2017-08-29T19:30:46.658Z,18.37
2017-08-29T19:33:14.991Z,22.03
2017-08-29T19:35:43.712Z,21.77
2017-08-29T19:38:12.205Z,16.83
2017-08-29T19:40:40.717Z,19.70
2017-08-29T19:43:09.335Z,20.60
2017-08-29T19:45:38.154Z,27.17
2017-08-29T19:48:06.512Z,23.50
2017-08-29T19:50:34.539Z,21.90
2017-08-29T19:53:02.670Z,23.73
2017-08-29T19:55:31.239Z,20.93
2017-08-29T19:57:59.662Z,20.80
2017-08-29T20:00:28.374Z,22.53
2017-08-29T20:02:56.960Z,27.23
2017-08-29T20:05:25.633Z,31.23
2017-08-29T20:07:54.190Z,29.67
2017-08-29T20:10:22.714Z,24.03
2017-08-29T20:12:51.294Z,24.83
2017-08-29T20:15:19.846Z,20.67
2017-08-29T20:17:48.467Z,25.07
2017-08-29T20:20:17.083Z,19.87
2017-08-29T20:22:45.942Z,19.67
2017-08-29T20:25:14.487Z,24.03
2017-08-29T20:27:43.001Z,19.37
2017-08-29T20:30:11.803Z,25.10
2017-08-29T20:32:40.382Z,26.60
2017-08-29T20:35:08.401Z,23.10
2017-08-29T20:37:37.072Z,28.37
2017-08-29T20:40:05.514Z,26.70
2017-08-29T20:42:33.586Z,24.13
2017-08-29T20:45:01.706Z,18.63
2017-08-29T20:47:29.750Z,19.13
2017-08-29T20:49:58.267Z,18.90
2017-08-29T20:52:26.847Z,21.10
2017-08-29T20:54:55.567Z,29.77
2017-08-29T20:57:23.578Z,29.53
2017-08-29T20:59:52.286Z,33.87
2017-08-29T21:02:20.677Z,20.33
2017-08-29T21:04:49.230Z,20.50
2017-08-29T21:07:18.014Z,22.33
2017-08-29T21:09:46.691Z,16.57
2017-08-29T21:12:15.218Z,26.30
2017-08-29T21:14:43.322Z,22.10
2017-08-29T21:17:11.869Z,27.40
2017-08-29T21:19:39.899Z,24.83
2017-08-29T21:22:08.460Z,23.63
2017-08-29T21:24:36.981Z,25.77
2017-08-29T21:27:05.496Z,23.13
2017-08-29T21:29:34.046Z,25.87
2017-08-29T21:32:02.434Z,23.97
2017-08-29T21:34:30.494Z,20.90
2017-08-29T21:36:59.222Z,27.93
2017-08-29T21:39:27.803Z,31.03
2017-08-29T21:41:56.525Z,28.13
2017-08-29T21:44:25.009Z,21.60
2017-08-29T21:46:53.531Z,19.40
2017-08-29T21:49:22.215Z,35.43
2017-08-29T21:51:51.097Z,25.73
2017-08-29T21:54:19.622Z,28.00
2017-08-29T21:56:48.107Z,26.73
2017-08-29T21:59:16.825Z,31.20
2017-08-29T22:01:45.278Z,32.50
2017-08-29T22:04:13.750Z,23.60
2017-08-29T22:06:41.905Z,28.80
2017-08-29T22:09:10.314Z,22.10
2017-08-29T22:11:38.930Z,22.47
2017-08-29T22:14:07.818Z,27.93
2017-08-29T22:16:36.041Z,26.70
2017-08-29T22:19:04.546Z,30.80
2017-08-29T22:21:33.173Z,24.67
2017-08-29T22:24:01.790Z,25.23
2017-08-29T22:26:30.402Z,26.50
2017-08-29T22:28:59.226Z,29.67
2017-08-29T22:31:27.679Z,30.73
2017-08-29T22:33:55.698Z,23.03
2017-08-29T22:36:24.270Z,26.27
2017-08-29T22:38:52.889Z,32.80
2017-08-29T22:41:21.474Z,29.17
2017-08-29T22:43:50.123Z,33.50
2017-08-29T22:46:18.146Z,25.73
2017-08-29T22:48:46.822Z,22.73
2017-08-29T22:51:15.678Z,31.37
2017-08-29T22:53:44.177Z,24.37
2017-08-29T22:56:12.781Z,32.07
2017-08-29T22:58:41.599Z,35.07
2017-08-29T23:01:10.318Z,26.57
2017-08-29T23:03:38.634Z,31.50
2017-08-29T23:06:07.321Z,34.63
2017-08-29T23:08:35.938Z,34.13
2017-08-29T23:11:04.554Z,40.43
2017-08-29T23:13:33.342Z,31.27
2017-08-29T23:16:01.367Z,23.67
2017-08-29T23:18:29.818Z,41.60
2017-08-29T23:20:58.526Z,39.20
2017-08-29T23:23:27.112Z,36.43
2017-08-29T23:25:55.891Z,49.63
2017-08-29T23:28:24.446Z,45.30
2017-08-29T23:30:52.903Z,44.50
2017-08-29T23:33:21.618Z,33.83
2017-08-29T23:35:50.101Z,43.17
2017-08-29T23:38:18.726Z,28.33
2017-08-29T23:40:46.758Z,48.73
2017-08-29T23:43:15.282Z,35.43
2017-08-29T23:45:43.890Z,33.67
2017-08-29T23:48:12.323Z,38.03
2017-08-29T23:50:40.934Z,36.53
2017-08-29T23:53:09.510Z,34.47
2017-08-29T23:55:37.975Z,32.33
2017-08-29T23:58:06.714Z,33.20
